Time;durP1;ratioP1;P1;durP2;ratioP2;P2;SDS_P1;SDS_P2;PMS_P1;PMS_P2;Temp;Humidity;BMP_temperature;BMP_pressure;BME280_temperature;BME280_humidity;BME280_pressure;Samples;Min_cycle;Max_cycle;Signal;HPM_P1;HPM_P2
2022/06/07 00:02:04;;;;;;;4.55;1.77;;;26.60;47.70;;;;;;5041904;28;20048;-48
2022/06/07 00:04:30;;;;;;;2.10;1.27;;;26.60;47.80;;;;;;5043439;28;20074;-47
2022/06/07 00:06:56;;;;;;;3.22;1.30;;;26.60;47.90;;;;;;5043603;28;20035;-51
2022/06/07 00:09:22;;;;;;;4.63;1.90;;;26.60;47.90;;;;;;5043059;28;20108;-47
2022/06/07 00:11:48;;;;;;;4.00;1.77;;;26.50;47.90;;;;;;5043296;28;20062;-48
2022/06/07 00:14:14;;;;;;;2.35;1.30;;;26.50;48.00;;;;;;5041697;28;20509;-48
2022/06/07 00:16:40;;;;;;;2.42;1.42;;;26.50;48.10;;;;;;5042778;28;20059;-47
2022/06/07 00:19:06;;;;;;;3.38;1.60;;;26.50;48.10;;;;;;5042251;28;20037;-47
2022/06/07 00:21:31;;;;;;;3.75;1.33;;;26.50;48.10;;;;;;5042655;28;20017;-48
2022/06/07 00:24:00;;;;;;;4.70;1.40;;;26.50;48.10;;;;;;5043166;28;20056;-48
2022/06/07 00:26:28;;;;;;;3.33;1.85;;;26.50;48.20;;;;;;5039687;28;20028;-48
2022/06/07 00:28:54;;;;;;;2.50;1.58;;;26.40;48.20;;;;;;5041391;28;20037;-46
2022/06/07 00:31:20;;;;;;;4.47;1.35;;;26.40;48.20;;;;;;5042577;28;20021;-48
2022/06/07 00:33:46;;;;;;;2.38;1.30;;;26.40;48.30;;;;;;5042523;28;20528;-48
2022/06/07 00:36:12;;;;;;;2.60;1.58;;;26.40;48.30;;;;;;5043022;28;20101;-47
2022/06/07 00:38:38;;;;;;;3.92;1.50;;;26.40;48.30;;;;;;5040754;28;20009;-48
2022/06/07 00:41:04;;;;;;;3.05;1.63;;;26.30;48.40;;;;;;5042566;28;20699;-47
2022/06/07 00:43:30;;;;;;;2.95;1.60;;;26.30;48.40;;;;;;5043088;28;20071;-47
2022/06/07 00:45:57;;;;;;;2.38;1.42;;;26.30;48.40;;;;;;5042486;28;20032;-47
2022/06/07 00:48:23;;;;;;;2.47;1.58;;;26.30;48.40;;;;;;5040851;28;20031;-48
2022/06/07 00:50:54;;;;;;;3.22;1.45;;;26.30;48.50;;;;;;5041134;28;20071;-47
2022/06/07 00:53:24;;;;;;;2.17;1.25;;;26.30;48.40;;;;;;5040473;28;20559;-48
2022/06/07 00:55:50;;;;;;;4.15;1.80;;;26.30;49.50;;;;;;5042333;28;20074;-47
2022/06/07 00:58:17;;;;;;;4.25;1.85;;;26.30;48.90;;;;;;5041226;28;20113;-45
2022/06/07 01:00:43;;;;;;;3.63;1.90;;;26.30;49.00;;;;;;5042344;28;20029;-47
2022/06/07 01:03:09;;;;;;;4.13;1.42;;;26.30;49.10;;;;;;5041002;28;20078;-47
2022/06/07 01:05:34;;;;;;;2.72;1.42;;;26.30;49.20;;;;;;5043078;28;20029;-46
2022/06/07 01:10:47;;;;;;;2.83;1.50;;;26.30;49.40;;;;;;5042403;28;20615;-48
2022/06/07 01:13:17;;;;;;;2.15;1.10;;;26.30;49.40;;;;;;5040757;28;20056;-47
2022/06/07 01:15:46;;;;;;;2.13;1.20;;;26.30;50.20;;;;;;5042898;28;20025;-47
2022/06/07 01:18:13;;;;;;;3.60;1.45;;;26.30;49.50;;;;;;5041767;28;20029;-48
2022/06/07 01:20:40;;;;;;;3.25;1.20;;;26.20;49.70;;;;;;5041111;28;20017;-47
2022/06/07 01:23:07;;;;;;;2.42;1.23;;;26.20;49.60;;;;;;5041380;28;20051;-47
2022/06/07 01:25:33;;;;;;;3.35;1.40;;;26.20;49.60;;;;;;5042544;28;20746;-47
2022/06/07 01:27:59;;;;;;;3.78;1.27;;;26.20;49.80;;;;;;5041791;28;20032;-47
2022/06/07 01:30:25;;;;;;;2.67;1.38;;;26.30;49.80;;;;;;5042489;28;20021;-47
2022/06/07 01:32:52;;;;;;;3.15;1.77;;;26.20;49.80;;;;;;5041872;28;20078;-48
2022/06/07 01:35:18;;;;;;;2.92;1.45;;;26.20;49.80;;;;;;5044404;28;20096;-48
2022/06/07 01:37:44;;;;;;;2.63;1.23;;;26.20;49.80;;;;;;5044276;28;20104;-47
2022/06/07 01:42:54;;;;;;;2.15;1.10;;;26.20;49.90;;;;;;5045607;28;20055;-48
2022/06/07 01:45:21;;;;;;;2.67;1.40;;;26.30;49.80;;;;;;5045881;28;20052;-46
2022/06/07 01:47:47;;;;;;;3.65;1.60;;;26.20;49.90;;;;;;5045839;28;20036;-48
2022/06/07 01:50:13;;;;;;;2.17;1.40;;;26.20;49.80;;;;;;5046297;28;20040;-46
2022/06/07 01:52:39;;;;;;;3.05;1.38;;;26.20;49.70;;;;;;5045612;28;20029;-47
2022/06/07 01:55:07;;;;;;;2.72;1.40;;;26.20;49.70;;;;;;5046270;28;20029;-45
2022/06/07 01:57:33;;;;;;;2.63;1.10;;;26.20;49.80;;;;;;5045657;28;20025;-48
2022/06/07 02:00:00;;;;;;;2.20;1.20;;;26.20;49.70;;;;;;5044374;28;20028;-48
2022/06/07 02:02:27;;;;;;;2.28;1.27;;;26.20;49.60;;;;;;5043667;28;20025;-47
2022/06/07 02:04:54;;;;;;;2.03;1.23;;;26.20;49.50;;;;;;5045684;28;20032;-47
2022/06/07 02:07:21;;;;;;;2.15;1.20;;;26.20;49.50;;;;;;5045384;28;20107;-47
2022/06/07 02:09:47;;;;;;;2.78;1.23;;;26.20;49.50;;;;;;5045143;28;20029;-47
2022/06/07 02:12:13;;;;;;;1.45;1.00;;;26.20;49.60;;;;;;5045330;28;20120;-46
2022/06/07 02:14:39;;;;;;;2.50;1.50;;;26.20;49.50;;;;;;5045675;28;20021;-48
2022/06/07 02:17:06;;;;;;;2.63;1.20;;;26.20;49.50;;;;;;5042485;28;20033;-47
2022/06/07 02:19:32;;;;;;;3.38;1.65;;;26.20;49.60;;;;;;5045082;28;20029;-47
2022/06/07 02:21:57;;;;;;;2.15;1.10;;;26.20;49.60;;;;;;5044797;28;20025;-47
2022/06/07 02:24:23;;;;;;;2.53;1.23;;;26.20;49.60;;;;;;5045689;28;20631;-48
2022/06/07 02:27:01;;;;;;;2.53;1.20;;;26.20;49.60;;;;;;5045731;28;20676;-48
2022/06/07 02:29:44;;;;;;;2.65;1.60;;;26.20;49.70;;;;;;5043492;28;20115;-47
2022/06/07 02:32:16;;;;;;;2.03;1.10;;;26.20;49.80;;;;;;5043864;28;20040;-48
2022/06/07 02:34:45;;;;;;;2.50;1.05;;;26.20;49.80;;;;;;5045937;28;20798;-47
2022/06/07 02:37:13;;;;;;;2.33;1.20;;;26.20;49.70;;;;;;5044500;28;20053;-47
2022/06/07 02:39:39;;;;;;;2.50;1.25;;;26.20;49.70;;;;;;5045675;28;20027;-47
2022/06/07 02:42:07;;;;;;;3.60;1.40;;;26.20;49.90;;;;;;5044701;28;20103;-48
2022/06/07 02:44:33;;;;;;;2.03;0.98;;;26.20;50.00;;;;;;5045616;28;20108;-47
2022/06/07 02:46:59;;;;;;;1.95;1.20;;;26.20;49.80;;;;;;5044786;28;20044;-45
2022/06/07 02:49:25;;;;;;;2.15;1.05;;;26.20;49.90;;;;;;5045138;28;20021;-46
2022/06/07 02:51:51;;;;;;;2.08;1.20;;;26.20;49.90;;;;;;5044974;28;20029;-47
2022/06/07 02:54:16;;;;;;;2.60;1.30;;;26.20;49.90;;;;;;5044070;28;20033;-47
2022/06/07 02:56:42;;;;;;;2.40;1.20;;;26.20;49.90;;;;;;5045592;28;20555;-47
2022/06/07 02:59:08;;;;;;;2.80;1.20;;;26.20;49.90;;;;;;5044352;28;20029;-48
2022/06/07 03:01:33;;;;;;;1.98;1.10;;;26.10;49.90;;;;;;5044105;28;20037;-47
2022/06/07 03:03:59;;;;;;;2.45;1.30;;;26.10;49.90;;;;;;5044932;28;20025;-48
2022/06/07 03:06:25;;;;;;;2.40;1.40;;;26.20;49.90;;;;;;5043922;28;20036;-47
2022/06/07 03:08:51;;;;;;;2.33;1.00;;;26.10;49.90;;;;;;5045138;28;20021;-47
2022/06/07 03:11:17;;;;;;;2.90;1.20;;;26.10;49.90;;;;;;5045301;28;20033;-48
2022/06/07 03:13:43;;;;;;;3.20;1.30;;;26.20;49.90;;;;;;5041790;28;20033;-47
2022/06/07 03:16:08;;;;;;;2.72;1.30;;;26.20;49.80;;;;;;5044304;28;20128;-47
2022/06/07 03:18:34;;;;;;;1.92;1.20;;;26.10;49.80;;;;;;5044059;28;20052;-46
2022/06/07 03:21:00;;;;;;;2.28;1.20;;;26.20;49.80;;;;;;5043015;28;20021;-47
2022/06/07 03:23:26;;;;;;;2.28;1.08;;;26.20;49.70;;;;;;5044906;28;20443;-47
2022/06/07 03:26:01;;;;;;;1.65;0.98;;;26.20;49.80;;;;;;5044525;28;20085;-48
2022/06/07 03:28:26;;;;;;;1.85;1.05;;;26.10;49.70;;;;;;5043273;28;20021;-48
2022/06/07 03:30:52;;;;;;;3.30;1.35;;;26.10;49.70;;;;;;5044460;28;20029;-48
2022/06/07 03:33:18;;;;;;;3.38;1.45;;;26.20;49.80;;;;;;5041556;28;20033;-48
2022/06/07 03:35:43;;;;;;;2.03;1.30;;;26.10;49.80;;;;;;5044360;28;20009;-47
2022/06/07 03:38:09;;;;;;;2.20;1.33;;;26.20;49.80;;;;;;5044134;28;20044;-47
2022/06/07 03:40:44;;;;;;;1.55;1.00;;;26.20;49.80;;;;;;5043919;28;20217;-47
2022/06/07 03:43:11;;;;;;;1.95;1.20;;;26.20;49.80;;;;;;5042410;28;20614;-47
2022/06/07 03:45:37;;;;;;;2.17;1.13;;;26.10;49.80;;;;;;5044025;28;20032;-47
2022/06/07 03:48:03;;;;;;;3.13;1.15;;;26.20;49.80;;;;;;5043775;28;20029;-47
2022/06/07 03:50:29;;;;;;;2.40;1.30;;;26.10;49.90;;;;;;5043749;28;20099;-48
2022/06/07 03:52:55;;;;;;;3.05;1.48;;;26.10;49.90;;;;;;5043954;28;20104;-46
2022/06/07 03:55:20;;;;;;;2.10;1.08;;;26.20;49.90;;;;;;5042781;28;20435;-47
2022/06/07 03:57:46;;;;;;;2.30;1.38;;;26.10;49.90;;;;;;5042834;28;20545;-47
2022/06/07 04:00:12;;;;;;;3.28;1.35;;;26.10;49.90;;;;;;5042350;28;20025;-47
2022/06/07 04:02:38;;;;;;;2.63;1.30;;;26.10;49.90;;;;;;5041126;28;20052;-47
2022/06/07 04:05:04;;;;;;;2.00;1.13;;;26.10;49.90;;;;;;5040805;28;20037;-47
2022/06/07 04:10:15;;;;;;;2.08;1.27;;;26.10;49.80;;;;;;5040710;28;20047;-48
2022/06/07 04:12:41;;;;;;;2.20;1.10;;;26.10;49.80;;;;;;5043313;28;20540;-47
2022/06/07 04:15:07;;;;;;;1.98;1.05;;;26.10;49.80;;;;;;5041477;28;20040;-48
2022/06/07 04:17:32;;;;;;;1.90;1.00;;;26.10;49.80;;;;;;5038199;28;20152;-47
2022/06/07 04:19:58;;;;;;;1.77;1.00;;;26.10;49.80;;;;;;5041871;28;20024;-47
2022/06/07 04:22:24;;;;;;;1.88;1.02;;;26.10;49.80;;;;;;5042000;28;20035;-47
2022/06/07 04:24:50;;;;;;;2.88;1.20;;;26.10;49.80;;;;;;5039610;28;20109;-47
2022/06/07 04:27:16;;;;;;;2.60;1.30;;;26.10;49.80;;;;;;5041768;28;20096;-47
2022/06/07 04:29:42;;;;;;;3.35;1.10;;;26.10;49.90;;;;;;5042761;28;20025;-48
2022/06/07 04:32:08;;;;;;;2.03;1.02;;;26.10;49.90;;;;;;5041324;28;20101;-47
2022/06/07 04:34:33;;;;;;;2.92;1.52;;;26.10;50.00;;;;;;5041402;28;20664;-48
2022/06/07 04:36:59;;;;;;;2.58;1.38;;;26.10;50.00;;;;;;5040699;28;20074;-48
2022/06/07 04:39:25;;;;;;;2.20;1.00;;;26.10;50.10;;;;;;5042175;28;20100;-48
2022/06/07 04:41:50;;;;;;;3.17;1.20;;;26.10;52.00;;;;;;5042555;28;20032;-49
2022/06/07 04:44:16;;;;;;;2.53;1.35;;;26.10;52.60;;;;;;5042627;28;20025;-48
2022/06/07 04:46:42;;;;;;;2.97;1.20;;;26.10;52.30;;;;;;5042620;28;20013;-48
2022/06/07 04:49:08;;;;;;;3.53;1.17;;;26.10;52.40;;;;;;5042300;28;20684;-47
2022/06/07 04:51:35;;;;;;;1.90;1.17;;;26.10;52.20;;;;;;5042948;28;20172;-49
2022/06/07 04:54:03;;;;;;;2.92;1.30;;;26.10;52.10;;;;;;5041527;28;20021;-47
2022/06/07 04:56:31;;;;;;;2.63;1.38;;;26.20;52.00;;;;;;5042538;28;20100;-47
2022/06/07 04:58:59;;;;;;;3.70;2.20;;;26.20;51.80;;;;;;5042209;28;20031;-48
2022/06/07 05:01:37;;;;;;;5.65;2.47;;;26.20;50.60;;;;;;5040543;28;20700;-47
2022/06/07 05:04:04;;;;;;;5.78;2.58;;;26.10;50.60;;;;;;5040308;28;20059;-48
2022/06/07 05:06:34;;;;;;;4.80;2.75;;;26.10;50.40;;;;;;5039852;28;20512;-46
2022/06/07 05:09:03;;;;;;;4.55;3.00;;;26.00;50.60;;;;;;5037871;28;20033;-47
2022/06/07 05:11:29;;;;;;;6.30;2.95;;;26.00;50.60;;;;;;5041940;28;20040;-47
2022/06/07 05:13:56;;;;;;;4.28;2.60;;;25.90;50.20;;;;;;5041652;28;20025;-46
2022/06/07 05:16:23;;;;;;;5.75;2.80;;;25.90;50.40;;;;;;5040839;28;20173;-47
2022/06/07 05:18:50;;;;;;;3.70;2.50;;;25.80;50.60;;;;;;5041208;28;20637;-48
2022/06/07 05:21:16;;;;;;;4.07;2.83;;;25.80;50.90;;;;;;5040013;28;20477;-47
2022/06/07 05:23:43;;;;;;;4.05;2.70;;;25.70;51.00;;;;;;5041433;28;20044;-46
2022/06/07 05:26:27;;;;;;;4.10;2.60;;;25.60;51.00;;;;;;5039892;28;20032;-47
2022/06/07 05:28:54;;;;;;;5.20;3.08;;;25.50;51.30;;;;;;5040586;28;20025;-47
2022/06/07 05:31:20;;;;;;;4.97;2.95;;;25.50;51.50;;;;;;5041286;28;20051;-46
2022/06/07 05:33:45;;;;;;;3.60;2.53;;;25.40;51.30;;;;;;5040080;28;20021;-47
2022/06/07 05:36:11;;;;;;;4.40;2.60;;;25.30;51.50;;;;;;5028792;28;20032;-48
2022/06/07 05:38:37;;;;;;;3.70;2.38;;;25.20;51.90;;;;;;5040176;28;20024;-48
2022/06/07 05:41:03;;;;;;;4.00;2.47;;;25.20;52.30;;;;;;5040340;28;20047;-49
2022/06/07 05:43:28;;;;;;;3.92;2.30;;;25.20;52.30;;;;;;5042533;28;20021;-48
2022/06/07 05:45:56;;;;;;;4.57;2.58;;;25.20;52.30;;;;;;5042190;28;20104;-47
2022/06/07 05:48:23;;;;;;;4.95;2.42;;;25.20;52.90;;;;;;5040041;28;20029;-47
2022/06/07 05:50:50;;;;;;;3.33;2.28;;;25.20;52.70;;;;;;5040099;28;20025;-47
2022/06/07 05:53:17;;;;;;;3.92;2.00;;;25.20;52.80;;;;;;5041530;28;20033;-47
2022/06/07 05:55:43;;;;;;;3.67;2.35;;;25.20;53.00;;;;;;5042247;28;20032;-47
2022/06/07 05:58:09;;;;;;;4.40;2.70;;;25.20;53.50;;;;;;5039848;28;20052;-48
2022/06/07 06:00:36;;;;;;;3.03;2.00;;;25.20;53.30;;;;;;5040392;28;20630;-47
2022/06/07 06:03:02;;;;;;;3.35;2.35;;;25.30;52.80;;;;;;5037652;28;20033;-45
2022/06/07 06:05:28;;;;;;;3.80;2.15;;;25.30;53.20;;;;;;5022646;28;20103;-45
2022/06/07 06:10:38;;;;;;;3.40;1.98;;;25.30;53.40;;;;;;5042437;28;20040;-45
2022/06/07 06:13:04;;;;;;;3.28;1.90;;;25.30;53.20;;;;;;5041846;28;20423;-45
2022/06/07 06:15:29;;;;;;;4.07;2.20;;;25.30;53.40;;;;;;5042748;28;20028;-46
2022/06/07 06:17:55;;;;;;;3.67;1.90;;;25.40;53.20;;;;;;5041642;28;20025;-47
2022/06/07 06:20:22;;;;;;;3.45;1.98;;;25.40;53.30;;;;;;5042347;28;20025;-46
2022/06/07 06:22:48;;;;;;;3.22;1.92;;;25.40;52.90;;;;;;5045108;28;20099;-47
2022/06/07 06:25:14;;;;;;;4.50;1.88;;;25.40;52.60;;;;;;5044975;28;20539;-47
2022/06/07 06:27:41;;;;;;;2.78;1.83;;;25.50;52.40;;;;;;5043307;28;20033;-46
2022/06/07 06:30:07;;;;;;;3.05;1.75;;;25.50;52.40;;;;;;5043618;28;20029;-47
2022/06/07 06:32:33;;;;;;;2.80;1.90;;;25.50;52.30;;;;;;5041600;28;20041;-47
2022/06/07 06:34:59;;;;;;;4.28;2.20;;;25.50;52.30;;;;;;5042579;28;20278;-47
2022/06/07 06:37:27;;;;;;;4.53;2.47;;;25.60;52.30;;;;;;5042791;28;20104;-47
2022/06/07 06:39:53;;;;;;;2.63;1.80;;;25.60;52.90;;;;;;5044988;28;20029;-47
2022/06/07 06:42:19;;;;;;;3.47;2.25;;;25.60;53.40;;;;;;5045453;28;20528;-47
2022/06/07 06:44:46;;;;;;;3.92;1.92;;;25.60;52.70;;;;;;5045448;28;20071;-46
2022/06/07 06:47:13;;;;;;;3.85;2.00;;;25.60;52.50;;;;;;5040805;28;20022;-48
2022/06/07 06:49:41;;;;;;;4.47;1.85;;;25.70;52.40;;;;;;5025112;28;20033;-46
2022/06/07 06:52:09;;;;;;;2.80;1.80;;;25.70;52.30;;;;;;5025178;28;20160;-48
2022/06/07 06:54:36;;;;;;;2.72;1.80;;;25.70;52.20;;;;;;5025972;28;20095;-46
2022/06/07 06:57:03;;;;;;;2.85;1.70;;;25.70;52.10;;;;;;5025546;28;20099;-47
2022/06/07 06:59:28;;;;;;;2.70;1.90;;;25.70;52.00;;;;;;5025421;28;20025;-47
2022/06/07 07:01:54;;;;;;;2.97;2.00;;;25.70;52.00;;;;;;5024869;28;20112;-47
2022/06/07 07:04:21;;;;;;;3.33;1.70;;;25.70;52.00;;;;;;5023912;28;20037;-47
2022/06/07 07:06:48;;;;;;;4.03;1.80;;;25.80;51.90;;;;;;5025486;28;20032;-46
2022/06/07 07:09:17;;;;;;;3.17;1.90;;;25.80;51.90;;;;;;5025429;28;20044;-47
2022/06/07 07:11:49;;;;;;;2.80;1.60;;;25.80;51.90;;;;;;5025617;28;20404;-47
2022/06/07 07:14:15;;;;;;;2.77;1.60;;;25.80;51.80;;;;;;5024906;28;20048;-47
2022/06/07 07:16:44;;;;;;;3.00;1.60;;;25.80;51.80;;;;;;5025126;28;20034;-47
2022/06/07 07:19:11;;;;;;;3.45;1.63;;;25.80;51.70;;;;;;5023779;28;20739;-47
2022/06/07 07:21:40;;;;;;;3.72;1.95;;;25.80;51.70;;;;;;5022936;28;20244;-47
2022/06/07 07:24:11;;;;;;;3.35;1.58;;;25.80;51.70;;;;;;5024093;28;20043;-47
2022/06/07 07:26:38;;;;;;;3.45;1.55;;;25.90;52.30;;;;;;5024731;28;20029;-47
2022/06/07 07:29:04;;;;;;;2.67;1.50;;;25.90;51.60;;;;;;5023613;28;20037;-47
2022/06/07 07:31:36;;;;;;;2.78;1.50;;;25.90;51.60;;;;;;5024643;28;20026;-47
2022/06/07 07:34:04;;;;;;;3.05;1.90;;;25.90;51.60;;;;;;5029739;28;20033;-48
2022/06/07 07:36:30;;;;;;;2.67;1.50;;;25.90;51.50;;;;;;5024640;28;20537;-46
2022/06/07 07:38:56;;;;;;;2.22;1.40;;;25.90;51.50;;;;;;5030462;28;20020;-50
2022/06/07 07:41:30;;;;;;;3.05;1.85;;;25.90;51.50;;;;;;5043953;28;20035;-47
2022/06/07 07:43:59;;;;;;;2.97;1.77;;;26.00;51.90;;;;;;5044706;28;20033;-46
2022/06/07 07:46:28;;;;;;;3.05;1.67;;;26.00;51.80;;;;;;5044708;28;20039;-47
2022/06/07 07:48:54;;;;;;;2.42;1.55;;;26.00;51.80;;;;;;5044184;28;20032;-46
2022/06/07 07:51:24;;;;;;;2.78;1.70;;;25.90;51.30;;;;;;5044105;28;20029;-47
2022/06/07 07:53:51;;;;;;;3.10;1.50;;;26.00;51.80;;;;;;5044310;28;20029;-46
2022/06/07 07:56:18;;;;;;;2.47;1.45;;;26.00;52.40;;;;;;5042817;28;20047;-47
2022/06/07 07:58:44;;;;;;;2.20;1.40;;;26.00;51.70;;;;;;5023479;28;20115;-47
2022/06/07 08:01:12;;;;;;;2.40;1.60;;;26.00;51.60;;;;;;5023657;28;20488;-47
2022/06/07 08:03:39;;;;;;;2.65;1.70;;;26.00;51.60;;;;;;5029328;28;20061;-47
2022/06/07 08:06:10;;;;;;;2.53;1.42;;;26.00;51.60;;;;;;5023812;28;20091;-47
2022/06/07 08:08:36;;;;;;;2.55;1.50;;;26.00;51.60;;;;;;5023915;28;20133;-46
2022/06/07 08:11:03;;;;;;;2.40;1.30;;;26.10;51.60;;;;;;5023656;28;20029;-47
2022/06/07 08:13:29;;;;;;;2.60;1.58;;;26.00;51.60;;;;;;5022451;28;20029;-47
2022/06/07 08:15:55;;;;;;;2.15;1.38;;;26.00;51.50;;;;;;5024349;28;20029;-46
2022/06/07 08:18:24;;;;;;;2.08;1.20;;;26.10;51.40;;;;;;5023042;28;20021;-47
2022/06/07 08:20:50;;;;;;;1.83;1.30;;;26.00;51.40;;;;;;5023886;28;20729;-47
2022/06/07 08:23:16;;;;;;;2.00;1.33;;;26.10;51.50;;;;;;5022263;28;20614;-47
2022/06/07 08:25:43;;;;;;;2.83;1.60;;;26.10;51.40;;;;;;5023606;28;20629;-46
2022/06/07 08:28:08;;;;;;;2.10;1.30;;;26.10;51.40;;;;;;5025207;28;20021;-48
2022/06/07 08:30:37;;;;;;;2.40;1.45;;;26.10;51.40;;;;;;5044032;28;20025;-47
2022/06/07 08:38:35;;;;;;;2.15;1.23;;;26.10;51.30;;;;;;5032842;28;20037;-46
2022/06/07 08:41:00;;;;;;;2.15;1.38;;;26.10;51.20;;;;;;5023209;28;20030;-46
2022/06/07 08:43:26;;;;;;;2.22;1.33;;;26.10;51.20;;;;;;5022740;28;20033;-46
2022/06/07 08:45:54;;;;;;;2.22;1.20;;;26.20;51.20;;;;;;5022823;28;20121;-46
2022/06/07 08:48:26;;;;;;;1.92;1.20;;;26.20;51.10;;;;;;5022408;28;20041;-46
2022/06/07 08:51:16;;;;;;;2.00;1.17;;;26.20;51.10;;;;;;5023720;28;20021;-47
2022/06/07 08:53:50;;;;;;;2.45;1.30;;;26.10;51.10;;;;;;5023014;28;20109;-46
2022/06/07 08:56:20;;;;;;;1.90;1.20;;;26.20;51.00;;;;;;5022873;28;20079;-47
2022/06/07 08:58:49;;;;;;;1.77;1.15;;;26.20;51.10;;;;;;5022999;28;20033;-47
2022/06/07 09:01:24;;;;;;;3.72;1.20;;;26.20;51.00;;;;;;5022651;28;20113;-47
2022/06/07 09:04:02;;;;;;;2.33;1.30;;;26.20;51.00;;;;;;5025475;28;20087;-47
2022/06/07 09:06:35;;;;;;;2.95;1.33;;;26.20;50.90;;;;;;5023710;28;20025;-46
2022/06/07 09:09:01;;;;;;;1.67;1.13;;;26.20;50.90;;;;;;5023146;28;20083;-46
2022/06/07 09:14:42;;;;;;;2.13;1.27;;;26.20;51.40;;;;;;5022878;28;20044;-47
2022/06/07 09:17:14;;;;;;;2.47;1.10;;;26.30;50.80;;;;;;5023088;28;20036;-47
2022/06/07 09:19:40;;;;;;;2.50;1.33;;;26.30;50.80;;;;;;5042868;28;20032;-47
2022/06/07 09:22:14;;;;;;;2.28;1.10;;;26.30;50.80;;;;;;5042700;28;20021;-46
2022/06/07 09:24:48;;;;;;;1.83;1.00;;;26.30;50.80;;;;;;5043443;28;20029;-47
2022/06/07 09:27:21;;;;;;;2.05;1.20;;;26.30;50.80;;;;;;5042913;28;20033;-47
2022/06/07 09:29:57;;;;;;;2.58;1.40;;;26.30;50.70;;;;;;5043027;28;20112;-46
2022/06/07 09:32:27;;;;;;;2.10;1.10;;;26.30;50.60;;;;;;5041983;28;20040;-46
2022/06/07 09:34:59;;;;;;;1.60;1.15;;;26.30;50.60;;;;;;5041020;28;20164;-44
2022/06/07 09:37:39;;;;;;;2.10;1.10;;;26.30;50.60;;;;;;5042179;28;20067;-47
2022/06/07 09:40:27;;;;;;;2.58;1.35;;;26.30;50.70;;;;;;5042491;28;20052;-46
2022/06/07 09:43:05;;;;;;;2.28;1.13;;;26.30;50.60;;;;;;5042686;28;20688;-47
2022/06/07 09:45:53;;;;;;;2.22;1.10;;;26.30;50.60;;;;;;5042333;28;20037;-47
2022/06/07 09:48:27;;;;;;;1.92;1.20;;;26.30;50.60;;;;;;5041620;28;20044;-47
2022/06/07 09:51:21;;;;;;;2.00;1.13;;;26.30;50.60;;;;;;5043003;28;20036;-47
2022/06/07 09:54:17;;;;;;;1.67;1.00;;;26.30;50.60;;;;;;5042277;28;20029;-46
2022/06/07 09:57:06;;;;;;;2.05;1.10;;;26.30;50.50;;;;;;5045117;28;20082;-47
2022/06/07 09:59:55;;;;;;;2.25;1.20;;;26.30;50.50;;;;;;5046393;28;20025;-47
2022/06/07 10:02:36;;;;;;;1.90;1.17;;;26.30;50.50;;;;;;5044477;28;20460;-46
2022/06/07 10:05:29;;;;;;;1.73;1.00;;;26.30;50.60;;;;;;5026934;28;20424;-46
2022/06/07 10:08:17;;;;;;;1.73;1.02;;;26.30;50.50;;;;;;5026242;28;20083;-47
2022/06/07 10:10:51;;;;;;;2.10;1.20;;;26.30;50.50;;;;;;5026812;28;20021;-47
2022/06/07 10:13:40;;;;;;;2.47;1.20;;;26.40;50.50;;;;;;5026172;28;20500;-47
2022/06/07 10:16:31;;;;;;;1.65;0.90;;;26.30;50.50;;;;;;5026505;28;20024;-47
2022/06/07 10:19:17;;;;;;;2.17;1.15;;;26.30;50.40;;;;;;5025995;28;20033;-47
2022/06/07 10:22:03;;;;;;;2.25;1.08;;;26.30;50.50;;;;;;5026606;28;20524;-48
2022/06/07 10:24:51;;;;;;;1.83;1.10;;;26.30;50.40;;;;;;5026409;28;20087;-47
2022/06/07 10:27:29;;;;;;;1.60;0.85;;;26.40;50.40;;;;;;5026058;28;20029;-47
2022/06/07 10:30:16;;;;;;;1.45;0.93;;;26.40;50.40;;;;;;5026339;28;20091;-47
2022/06/07 10:33:09;;;;;;;1.63;1.02;;;26.40;50.40;;;;;;5027812;28;20036;-47
2022/06/07 10:35:53;;;;;;;1.70;1.13;;;26.40;50.40;;;;;;5046409;28;20025;-47
2022/06/07 10:38:25;;;;;;;1.48;1.00;;;26.40;50.30;;;;;;5045928;28;20033;-45
2022/06/07 10:41:04;;;;;;;1.90;1.20;;;26.40;50.40;;;;;;5046052;28;20431;-47
2022/06/07 10:43:32;;;;;;;2.10;1.10;;;26.40;50.30;;;;;;5045568;28;20584;-48
2022/06/07 10:46:01;;;;;;;1.92;1.15;;;26.40;50.40;;;;;;5045778;28;20025;-47
2022/06/07 10:48:35;;;;;;;2.33;1.25;;;26.40;50.30;;;;;;5035068;28;20477;-46
2022/06/07 10:52:20;;;;;;;1.77;0.93;;;26.40;50.40;;;;;;5025631;28;20404;-46
2022/06/07 10:53:57;;;;;;;2.25;1.15;;;26.40;50.40;;;;;;5025318;28;20117;-47
2022/06/07 10:56:31;;;;;;;1.40;0.90;;;26.40;50.30;;;;;;5025888;28;20037;-47
2022/06/07 10:58:57;;;;;;;1.75;1.08;;;26.40;50.30;;;;;;5035791;28;20048;-47
2022/06/07 11:01:29;;;;;;;2.28;1.20;;;26.40;50.30;;;;;;5045632;28;20025;-47
2022/06/07 11:04:10;;;;;;;1.83;1.30;;;26.40;50.30;;;;;;5033464;28;20025;-47
2022/06/07 11:09:43;;;;;;;1.48;0.90;;;26.40;50.20;;;;;;5025011;28;20031;-47
2022/06/07 11:12:09;;;;;;;;;;;26.50;50.20;;;;;;5025874;28;20052;-48
2022/06/07 11:14:46;;;;;;;1.00;0.70;;;26.50;50.20;;;;;;5025476;28;19916;-47
2022/06/07 11:17:18;;;;;;;1.80;0.90;;;26.50;50.20;;;;;;5025436;28;20565;-47
2022/06/07 11:19:44;;;;;;;2.13;1.08;;;26.40;50.20;;;;;;5025553;28;20056;-47
2022/06/07 11:22:17;;;;;;;2.03;1.00;;;26.50;50.30;;;;;;5025384;28;20025;-46
2022/06/07 11:24:59;;;;;;;1.75;1.08;;;26.50;50.20;;;;;;5024924;28;20113;-46
2022/06/07 11:27:27;;;;;;;1.98;1.20;;;26.50;50.30;;;;;;5024768;28;20715;-47
2022/06/07 11:30:20;;;;;;;1.77;1.10;;;26.50;50.30;;;;;;5025278;28;20480;-46
2022/06/07 11:32:58;;;;;;;1.67;0.90;;;26.50;50.30;;;;;;5027492;28;20053;-47
2022/06/07 11:35:43;;;;;;;1.77;1.02;;;26.50;50.20;;;;;;5045217;28;20086;-46
2022/06/07 11:38:18;;;;;;;1.77;1.10;;;26.50;50.20;;;;;;5044723;28;20021;-48
2022/06/07 11:40:46;;;;;;;1.85;1.13;;;26.50;50.10;;;;;;5045113;28;20021;-47
2022/06/07 11:43:48;;;;;;;1.85;1.02;;;26.50;50.10;;;;;;5044405;28;20033;-47
2022/06/07 11:46:43;;;;;;;1.40;0.82;;;26.50;50.20;;;;;;5044954;28;20562;-47
2022/06/07 11:49:20;;;;;;;2.03;1.17;;;26.50;50.20;;;;;;5028291;28;20052;-47
2022/06/07 11:52:00;;;;;;;2.05;1.00;;;26.50;50.20;;;;;;5024898;28;20758;-45
2022/06/07 11:54:36;;;;;;;2.05;1.20;;;26.50;50.10;;;;;;5024539;28;20044;-48
2022/06/07 11:58:00;;;;;;;1.80;0.93;;;26.50;50.20;;;;;;5023455;28;20375;-48
2022/06/07 12:00:29;;;;;;;1.88;1.00;;;26.50;50.20;;;;;;5021636;28;20029;-48
2022/06/07 12:02:57;;;;;;;1.38;0.90;;;26.50;50.10;;;;;;5022983;28;20515;-47
2022/06/07 12:05:29;;;;;;;1.75;1.10;;;26.50;50.80;;;;;;5023154;28;20124;-46
2022/06/07 12:08:07;;;;;;;1.85;1.10;;;26.50;50.00;;;;;;5024251;28;20083;-46
2022/06/07 12:10:39;;;;;;;1.23;0.73;;;26.50;50.00;;;;;;5024131;28;20104;-47
2022/06/07 12:13:10;;;;;;;2.22;1.05;;;26.50;50.00;;;;;;5023432;28;20333;-46
2022/06/07 12:15:52;;;;;;;1.58;0.98;;;26.50;50.10;;;;;;5024130;28;20029;-47
2022/06/07 12:18:27;;;;;;;1.38;0.98;;;26.50;50.10;;;;;;5030340;28;20039;-46
2022/06/07 12:21:07;;;;;;;1.98;1.02;;;26.50;50.10;;;;;;5044046;28;20446;-47
2022/06/07 12:23:41;;;;;;;1.77;1.15;;;26.50;50.10;;;;;;5036213;28;20030;-47
2022/06/07 12:26:34;;;;;;;1.52;0.82;;;26.50;50.10;;;;;;5024409;28;20133;-47
2022/06/07 12:29:21;;;;;;;1.48;0.90;;;26.50;50.10;;;;;;5023298;28;20026;-48
2022/06/07 12:31:56;;;;;;;1.45;0.77;;;26.50;50.10;;;;;;5023948;28;20025;-47
2022/06/07 12:34:31;;;;;;;1.60;1.00;;;26.50;50.10;;;;;;5023654;28;20029;-47
2022/06/07 12:37:24;;;;;;;1.52;0.90;;;26.50;50.10;;;;;;5024204;28;20104;-47
2022/06/07 12:39:58;;;;;;;1.40;0.87;;;26.50;50.10;;;;;;5023253;28;20048;-47
2022/06/07 12:42:32;;;;;;;1.13;0.77;;;26.50;50.10;;;;;;5023443;28;20669;-47
2022/06/07 12:45:02;;;;;;;1.13;0.82;;;26.40;50.10;;;;;;5022587;28;20457;-47
2022/06/07 12:47:35;;;;;;;2.47;1.10;;;26.50;50.10;;;;;;5023616;28;20037;-47
2022/06/07 12:50:01;;;;;;;;;;;26.40;50.10;;;;;;5024236;28;20025;-46
2022/06/07 12:52:31;;;;;;;1.25;0.85;;;26.50;50.10;;;;;;5023888;28;19912;-46
2022/06/07 12:55:11;;;;;;;2.30;1.23;;;26.40;50.00;;;;;;5023477;28;20036;-46
2022/06/07 12:57:55;;;;;;;2.17;1.15;;;26.40;50.10;;;;;;5023512;28;20025;-47
2022/06/07 13:00:25;;;;;;;1.70;1.02;;;26.40;50.10;;;;;;5023816;28;20405;-47
2022/06/07 13:03:00;;;;;;;1.55;0.93;;;26.50;50.10;;;;;;5023226;28;20081;-47
2022/06/07 13:05:34;;;;;;;1.60;1.00;;;26.40;50.10;;;;;;5023037;28;20037;-47
2022/06/07 13:08:02;;;;;;;1.58;0.93;;;26.40;50.10;;;;;;5022142;28;20029;-46
2022/06/07 13:10:34;;;;;;;1.50;0.80;;;26.40;50.10;;;;;;5023219;28;20025;-47
2022/06/07 13:13:03;;;;;;;1.80;1.00;;;26.40;50.10;;;;;;5032180;28;20040;-47
2022/06/07 13:15:58;;;;;;;1.55;0.90;;;26.50;50.10;;;;;;5043508;28;20029;-47
2022/06/07 13:18:31;;;;;;;2.78;1.00;;;26.40;50.10;;;;;;5036121;28;20033;-48
2022/06/07 13:21:39;;;;;;;1.38;0.70;;;26.50;50.10;;;;;;5022212;28;20025;-47
2022/06/07 13:24:12;;;;;;;1.50;0.90;;;26.40;50.20;;;;;;5022132;28;20585;-47
2022/06/07 13:26:44;;;;;;;1.20;0.80;;;26.40;50.10;;;;;;5022967;28;20068;-47
2022/06/07 13:29:13;;;;;;;1.45;0.90;;;26.40;50.10;;;;;;5023196;28;20064;-47